<?xml version="1.0" encoding="UTF-8" standalone="no" ?>
<gpx xmlns="http://www.topografix.com/GPX/1/1" xmlns:xsi="http://www.w3.org/2001/XMLSchema-instance" xsi:schemaLocation="http://www.topografix.com/GPX/1/1 http://www.topografix.com/GPX/1/1/gpx.xsd" version="1.1" creator="VisuGPX - https://www.visugpx.com">
  <metadata>
    <name>coulevon la tuiliere</name>
    <desc><![CDATA[C'est une proposition de parcours pour jour de pluie]]></desc>
  </metadata>
  <trk>
    <name><![CDATA[la tuliere]]></name>
    <trkseg>
      <trkpt lat="47.64426" lon="6.18309">
        <ele>230</ele>
        <time>2018-09-24T11:44:47Z</time>
      </trkpt>
      <trkpt lat="47.64428" lon="6.18313">
        <ele>230</ele>
        <time>2018-09-24T11:44:47Z</time>
      </trkpt>
      <trkpt lat="47.6445" lon="6.18287">
        <ele>230</ele>
        <time>2018-09-24T11:44:47Z</time>
      </trkpt>
      <trkpt lat="47.64471" lon="6.18259">
        <ele>231</ele>
        <time>2018-09-24T11:44:48Z</time>
      </trkpt>
      <trkpt lat="47.64491" lon="6.1822">
        <ele>227</ele>
        <time>2018-09-24T11:44:56Z</time>
      </trkpt>
      <trkpt lat="47.64505" lon="6.18173">
        <ele>228</ele>
        <time>2018-09-24T11:45:04Z</time>
      </trkpt>
      <trkpt lat="47.64496" lon="6.18168">
        <ele>225</ele>
        <time>2018-09-24T11:45:13Z</time>
      </trkpt>
      <trkpt lat="47.64494" lon="6.18154">
        <ele>224</ele>
        <time>2018-09-24T11:45:22Z</time>
      </trkpt>
      <trkpt lat="47.64493" lon="6.18136">
        <ele>224</ele>
        <time>2018-09-24T11:45:25Z</time>
      </trkpt>
      <trkpt lat="47.64509" lon="6.18056">
        <ele>227</ele>
        <time>2018-09-24T11:45:28Z</time>
      </trkpt>
      <trkpt lat="47.6451" lon="6.18048">
        <ele>228</ele>
        <time>2018-09-24T11:45:31Z</time>
      </trkpt>
      <trkpt lat="47.645" lon="6.18047">
        <ele>227</ele>
        <time>2018-09-24T11:45:46Z</time>
      </trkpt>
      <trkpt lat="47.64485" lon="6.18039">
        <ele>223</ele>
        <time>2018-09-24T11:45:47Z</time>
      </trkpt>
      <trkpt lat="47.64471" lon="6.18028">
        <ele>223</ele>
        <time>2018-09-24T11:45:50Z</time>
      </trkpt>
      <trkpt lat="47.64456" lon="6.18008">
        <ele>223</ele>
        <time>2018-09-24T11:45:54Z</time>
      </trkpt>
      <trkpt lat="47.6443" lon="6.1796">
        <ele>222</ele>
        <time>2018-09-24T11:45:58Z</time>
      </trkpt>
      <trkpt lat="47.64407" lon="6.17915">
        <ele>221</ele>
        <time>2018-09-24T11:46:03Z</time>
      </trkpt>
      <trkpt lat="47.64388" lon="6.1788">
        <ele>220</ele>
        <time>2018-09-24T11:46:14Z</time>
      </trkpt>
      <trkpt lat="47.64367" lon="6.17848">
        <ele>220</ele>
        <time>2018-09-24T11:46:24Z</time>
      </trkpt>
      <trkpt lat="47.64342" lon="6.17823">
        <ele>220</ele>
        <time>2018-09-24T11:46:32Z</time>
      </trkpt>
      <trkpt lat="47.64305" lon="6.17798">
        <ele>219</ele>
        <time>2018-09-24T11:46:40Z</time>
      </trkpt>
      <trkpt lat="47.64268" lon="6.17775">
        <ele>218</ele>
        <time>2018-09-24T11:46:48Z</time>
      </trkpt>
      <trkpt lat="47.6424" lon="6.17759">
        <ele>217</ele>
        <time>2018-09-24T11:46:59Z</time>
      </trkpt>
      <trkpt lat="47.64226" lon="6.17745">
        <ele>217</ele>
        <time>2018-09-24T11:47:10Z</time>
      </trkpt>
      <trkpt lat="47.64194" lon="6.17706">
        <ele>217</ele>
        <time>2018-09-24T11:47:18Z</time>
      </trkpt>
      <trkpt lat="47.64172" lon="6.17674">
        <ele>218</ele>
        <time>2018-09-24T11:47:23Z</time>
      </trkpt>
      <trkpt lat="47.64172" lon="6.17674">
        <ele>218</ele>
        <time>2018-09-24T11:47:34Z</time>
      </trkpt>
      <trkpt lat="47.64078" lon="6.17543">
        <ele>217</ele>
        <time>2018-09-24T11:47:42Z</time>
      </trkpt>
      <trkpt lat="47.64056" lon="6.17516">
        <ele>217</ele>
        <time>2018-09-24T11:47:42Z</time>
      </trkpt>
      <trkpt lat="47.64037" lon="6.17486">
        <ele>218</ele>
        <time>2018-09-24T11:47:43Z</time>
      </trkpt>
      <trkpt lat="47.64004" lon="6.17437">
        <ele>218</ele>
        <time>2018-09-24T11:47:51Z</time>
      </trkpt>
      <trkpt lat="47.63991" lon="6.17418">
        <ele>219</ele>
        <time>2018-09-24T11:47:59Z</time>
      </trkpt>
      <trkpt lat="47.63989" lon="6.17415">
        <ele>219</ele>
        <time>2018-09-24T11:48:08Z</time>
      </trkpt>
      <trkpt lat="47.64009" lon="6.17399">
        <ele>219</ele>
        <time>2018-09-24T11:48:17Z</time>
      </trkpt>
      <trkpt lat="47.64042" lon="6.17376">
        <ele>219</ele>
        <time>2018-09-24T11:48:20Z</time>
      </trkpt>
      <trkpt lat="47.64057" lon="6.17365">
        <ele>220</ele>
        <time>2018-09-24T11:48:23Z</time>
      </trkpt>
      <trkpt lat="47.64071" lon="6.1735">
        <ele>220</ele>
        <time>2018-09-24T11:48:26Z</time>
      </trkpt>
      <trkpt lat="47.64096" lon="6.17315">
        <ele>221</ele>
        <time>2018-09-24T11:48:41Z</time>
      </trkpt>
      <trkpt lat="47.64128" lon="6.1725">
        <ele>222</ele>
        <time>2018-09-24T11:48:42Z</time>
      </trkpt>
      <trkpt lat="47.64135" lon="6.17231">
        <ele>224</ele>
        <time>2018-09-24T11:48:45Z</time>
      </trkpt>
      <trkpt lat="47.64158" lon="6.17128">
        <ele>227</ele>
        <time>2018-09-24T11:48:49Z</time>
      </trkpt>
      <trkpt lat="47.6417" lon="6.17084">
        <ele>229</ele>
        <time>2018-09-24T11:48:53Z</time>
      </trkpt>
      <trkpt lat="47.64176" lon="6.1708">
        <ele>230</ele>
        <time>2018-09-24T11:48:58Z</time>
      </trkpt>
      <trkpt lat="47.64189" lon="6.1707">
        <ele>231</ele>
        <time>2018-09-24T11:49:09Z</time>
      </trkpt>
      <trkpt lat="47.64275" lon="6.16995">
        <ele>231</ele>
        <time>2018-09-24T11:49:19Z</time>
      </trkpt>
      <trkpt lat="47.64296" lon="6.16976">
        <ele>231</ele>
        <time>2018-09-24T11:49:27Z</time>
      </trkpt>
      <trkpt lat="47.643" lon="6.16969">
        <ele>231</ele>
        <time>2018-09-24T11:49:35Z</time>
      </trkpt>
      <trkpt lat="47.64306" lon="6.16953">
        <ele>231</ele>
        <time>2018-09-24T11:49:43Z</time>
      </trkpt>
      <trkpt lat="47.64316" lon="6.16915">
        <ele>233</ele>
        <time>2018-09-24T11:49:54Z</time>
      </trkpt>
      <trkpt lat="47.64316" lon="6.16915">
        <ele>233</ele>
        <time>2018-09-24T11:50:05Z</time>
      </trkpt>
      <trkpt lat="47.64351" lon="6.16776">
        <ele>233</ele>
        <time>2018-09-24T11:50:13Z</time>
      </trkpt>
      <trkpt lat="47.6426" lon="6.16708">
        <ele>238</ele>
        <time>2018-09-24T11:50:18Z</time>
      </trkpt>
      <trkpt lat="47.64256" lon="6.16724">
        <ele>238</ele>
        <time>2018-09-24T11:50:29Z</time>
      </trkpt>
      <trkpt lat="47.64256" lon="6.16724">
        <ele>238</ele>
        <time>2018-09-24T11:50:37Z</time>
      </trkpt>
      <trkpt lat="47.64294" lon="6.16591">
        <ele>237</ele>
        <time>2018-09-24T11:50:37Z</time>
      </trkpt>
      <trkpt lat="47.64357" lon="6.16363">
        <ele>235</ele>
        <time>2018-09-24T11:51:11Z</time>
      </trkpt>
      <trkpt lat="47.64363" lon="6.16334">
        <ele>235</ele>
        <time>2018-09-24T11:51:19Z</time>
      </trkpt>
      <trkpt lat="47.64381" lon="6.16333">
        <ele>234</ele>
        <time>2018-09-24T11:51:26Z</time>
      </trkpt>
      <trkpt lat="47.64402" lon="6.1633">
        <ele>234</ele>
        <time>2018-09-24T11:51:38Z</time>
      </trkpt>
      <trkpt lat="47.64409" lon="6.1634">
        <ele>234</ele>
        <time>2018-09-24T11:51:43Z</time>
      </trkpt>
      <trkpt lat="47.64414" lon="6.16342">
        <ele>234</ele>
        <time>2018-09-24T11:51:44Z</time>
      </trkpt>
      <trkpt lat="47.6442" lon="6.16341">
        <ele>234</ele>
        <time>2018-09-24T11:51:50Z</time>
      </trkpt>
      <trkpt lat="47.64428" lon="6.16333">
        <ele>234</ele>
        <time>2018-09-24T11:52:00Z</time>
      </trkpt>
      <trkpt lat="47.6445" lon="6.16345">
        <ele>234</ele>
        <time>2018-09-24T11:52:04Z</time>
      </trkpt>
      <trkpt lat="47.64468" lon="6.16352">
        <ele>234</ele>
        <time>2018-09-24T11:52:09Z</time>
      </trkpt>
      <trkpt lat="47.64555" lon="6.16368">
        <ele>234</ele>
        <time>2018-09-24T11:52:18Z</time>
      </trkpt>
      <trkpt lat="47.64576" lon="6.16372">
        <ele>234</ele>
        <time>2018-09-24T11:52:32Z</time>
      </trkpt>
      <trkpt lat="47.64576" lon="6.16372">
        <ele>234</ele>
        <time>2018-09-24T11:52:36Z</time>
      </trkpt>
      <trkpt lat="47.6475" lon="6.16404">
        <ele>239</ele>
        <time>2018-09-24T11:52:56Z</time>
      </trkpt>
      <trkpt lat="47.64756" lon="6.16405">
        <ele>239</ele>
        <time>2018-09-24T11:53:05Z</time>
      </trkpt>
      <trkpt lat="47.64764" lon="6.16411">
        <ele>240</ele>
        <time>2018-09-24T11:53:07Z</time>
      </trkpt>
      <trkpt lat="47.64798" lon="6.16417">
        <ele>239</ele>
        <time>2018-09-24T11:53:11Z</time>
      </trkpt>
      <trkpt lat="47.64843" lon="6.16424">
        <ele>240</ele>
        <time>2018-09-24T11:53:38Z</time>
      </trkpt>
      <trkpt lat="47.64888" lon="6.16429">
        <ele>238</ele>
        <time>2018-09-24T11:53:45Z</time>
      </trkpt>
      <trkpt lat="47.65092" lon="6.16464">
        <ele>233</ele>
        <time>2018-09-24T11:53:47Z</time>
      </trkpt>
      <trkpt lat="47.65338" lon="6.16509">
        <ele>230</ele>
        <time>2018-09-24T11:53:50Z</time>
      </trkpt>
      <trkpt lat="47.65442" lon="6.1653">
        <ele>232</ele>
        <time>2018-09-24T11:53:57Z</time>
      </trkpt>
      <trkpt lat="47.65459" lon="6.16534">
        <ele>232</ele>
        <time>2018-09-24T11:53:57Z</time>
      </trkpt>
      <trkpt lat="47.65466" lon="6.16532">
        <ele>232</ele>
        <time>2018-09-24T11:53:58Z</time>
      </trkpt>
      <trkpt lat="47.65487" lon="6.16537">
        <ele>232</ele>
        <time>2018-09-24T11:54:06Z</time>
      </trkpt>
      <trkpt lat="47.6552" lon="6.16542">
        <ele>235</ele>
        <time>2018-09-24T11:54:14Z</time>
      </trkpt>
      <trkpt lat="47.65527" lon="6.16543">
        <ele>235</ele>
        <time>2018-09-24T11:54:23Z</time>
      </trkpt>
      <trkpt lat="47.65535" lon="6.16528">
        <ele>235</ele>
        <time>2018-09-24T11:54:32Z</time>
      </trkpt>
      <trkpt lat="47.65547" lon="6.16508">
        <ele>235</ele>
        <time>2018-09-24T11:54:35Z</time>
      </trkpt>
      <trkpt lat="47.65568" lon="6.16477">
        <ele>234</ele>
        <time>2018-09-24T11:54:38Z</time>
      </trkpt>
      <trkpt lat="47.65573" lon="6.16474">
        <ele>234</ele>
        <time>2018-09-24T11:54:41Z</time>
      </trkpt>
      <trkpt lat="47.65601" lon="6.16432">
        <ele>235</ele>
        <time>2018-09-24T11:54:56Z</time>
      </trkpt>
      <trkpt lat="47.65642" lon="6.16372">
        <ele>233</ele>
        <time>2018-09-24T11:54:57Z</time>
      </trkpt>
      <trkpt lat="47.65683" lon="6.16314">
        <ele>232</ele>
        <time>2018-09-24T11:55:00Z</time>
      </trkpt>
      <trkpt lat="47.65788" lon="6.16162">
        <ele>240</ele>
        <time>2018-09-24T11:55:04Z</time>
      </trkpt>
      <trkpt lat="47.65841" lon="6.16085">
        <ele>243</ele>
        <time>2018-09-24T11:55:08Z</time>
      </trkpt>
      <trkpt lat="47.65841" lon="6.16085">
        <ele>243</ele>
        <time>2018-09-24T11:55:13Z</time>
      </trkpt>
      <trkpt lat="47.6591" lon="6.15988">
        <ele>239</ele>
        <time>2018-09-24T11:55:24Z</time>
      </trkpt>
      <trkpt lat="47.65932" lon="6.15956">
        <ele>235</ele>
        <time>2018-09-24T11:55:34Z</time>
      </trkpt>
      <trkpt lat="47.65895" lon="6.1589">
        <ele>236</ele>
        <time>2018-09-24T11:55:42Z</time>
      </trkpt>
      <trkpt lat="47.65871" lon="6.15845">
        <ele>235</ele>
        <time>2018-09-24T11:55:50Z</time>
      </trkpt>
      <trkpt lat="47.65867" lon="6.15831">
        <ele>231</ele>
        <time>2018-09-24T11:55:58Z</time>
      </trkpt>
      <trkpt lat="47.6584" lon="6.157">
        <ele>228</ele>
        <time>2018-09-24T11:56:09Z</time>
      </trkpt>
      <trkpt lat="47.658" lon="6.15507">
        <ele>224</ele>
        <time>2018-09-24T11:56:20Z</time>
      </trkpt>
      <trkpt lat="47.65786" lon="6.15436">
        <ele>221</ele>
        <time>2018-09-24T11:56:28Z</time>
      </trkpt>
      <trkpt lat="47.65786" lon="6.15436">
        <ele>221</ele>
        <time>2018-09-24T11:56:33Z</time>
      </trkpt>
      <trkpt lat="47.65739" lon="6.15188">
        <ele>226</ele>
        <time>2018-09-24T11:56:44Z</time>
      </trkpt>
      <trkpt lat="47.65707" lon="6.1502">
        <ele>229</ele>
        <time>2018-09-24T11:56:52Z</time>
      </trkpt>
      <trkpt lat="47.65718" lon="6.15022">
        <ele>229</ele>
        <time>2018-09-24T11:56:52Z</time>
      </trkpt>
      <trkpt lat="47.65777" lon="6.15021">
        <ele>230</ele>
        <time>2018-09-24T11:57:26Z</time>
      </trkpt>
      <trkpt lat="47.65868" lon="6.15016">
        <ele>229</ele>
        <time>2018-09-24T11:57:34Z</time>
      </trkpt>
      <trkpt lat="47.65956" lon="6.15019">
        <ele>226</ele>
        <time>2018-09-24T11:57:41Z</time>
      </trkpt>
      <trkpt lat="47.66033" lon="6.15023">
        <ele>225</ele>
        <time>2018-09-24T11:57:53Z</time>
      </trkpt>
      <trkpt lat="47.6611" lon="6.15022">
        <ele>228</ele>
        <time>2018-09-24T11:57:58Z</time>
      </trkpt>
      <trkpt lat="47.66157" lon="6.15022">
        <ele>230</ele>
        <time>2018-09-24T11:57:59Z</time>
      </trkpt>
      <trkpt lat="47.66195" lon="6.15026">
        <ele>233</ele>
        <time>2018-09-24T11:58:05Z</time>
      </trkpt>
      <trkpt lat="47.6628" lon="6.15042">
        <ele>237</ele>
        <time>2018-09-24T11:58:15Z</time>
      </trkpt>
      <trkpt lat="47.66314" lon="6.15048">
        <ele>238</ele>
        <time>2018-09-24T11:58:19Z</time>
      </trkpt>
      <trkpt lat="47.66314" lon="6.15048">
        <ele>238</ele>
        <time>2018-09-24T11:58:24Z</time>
      </trkpt>
      <trkpt lat="47.66347" lon="6.15053">
        <ele>239</ele>
        <time>2018-09-24T11:58:33Z</time>
      </trkpt>
      <trkpt lat="47.66365" lon="6.15053">
        <ele>239</ele>
        <time>2018-09-24T11:58:47Z</time>
      </trkpt>
      <trkpt lat="47.66389" lon="6.15049">
        <ele>239</ele>
        <time>2018-09-24T11:58:51Z</time>
      </trkpt>
      <trkpt lat="47.66427" lon="6.15041">
        <ele>240</ele>
        <time>2018-09-24T11:59:11Z</time>
      </trkpt>
      <trkpt lat="47.66462" lon="6.15033">
        <ele>241</ele>
        <time>2018-09-24T11:59:20Z</time>
      </trkpt>
      <trkpt lat="47.66475" lon="6.15036">
        <ele>241</ele>
        <time>2018-09-24T11:59:22Z</time>
      </trkpt>
      <trkpt lat="47.66491" lon="6.15045">
        <ele>241</ele>
        <time>2018-09-24T11:59:26Z</time>
      </trkpt>
      <trkpt lat="47.66505" lon="6.15049">
        <ele>243</ele>
        <time>2018-09-24T11:59:53Z</time>
      </trkpt>
      <trkpt lat="47.66558" lon="6.15048">
        <ele>244</ele>
        <time>2018-09-24T12:00:00Z</time>
      </trkpt>
      <trkpt lat="47.66564" lon="6.15048">
        <ele>244</ele>
        <time>2018-09-24T12:00:02Z</time>
      </trkpt>
      <trkpt lat="47.6657" lon="6.15038">
        <ele>245</ele>
        <time>2018-09-24T12:00:05Z</time>
      </trkpt>
      <trkpt lat="47.66614" lon="6.14964">
        <ele>249</ele>
        <time>2018-09-24T12:00:12Z</time>
      </trkpt>
      <trkpt lat="47.66636" lon="6.14928">
        <ele>251</ele>
        <time>2018-09-24T12:00:12Z</time>
      </trkpt>
      <trkpt lat="47.66645" lon="6.14906">
        <ele>252</ele>
        <time>2018-09-24T12:00:39Z</time>
      </trkpt>
      <trkpt lat="47.66686" lon="6.14789">
        <ele>257</ele>
        <time>2018-09-24T12:01:06Z</time>
      </trkpt>
      <trkpt lat="47.66663" lon="6.14766">
        <ele>256</ele>
        <time>2018-09-24T12:01:09Z</time>
      </trkpt>
      <trkpt lat="47.66622" lon="6.14716">
        <ele>255</ele>
        <time>2018-09-24T12:01:09Z</time>
      </trkpt>
      <trkpt lat="47.66601" lon="6.14684">
        <ele>254</ele>
        <time>2018-09-24T12:01:10Z</time>
      </trkpt>
      <trkpt lat="47.66589" lon="6.1465">
        <ele>254</ele>
        <time>2018-09-24T12:01:18Z</time>
      </trkpt>
      <trkpt lat="47.6658" lon="6.14567">
        <ele>253</ele>
        <time>2018-09-24T12:01:26Z</time>
      </trkpt>
      <trkpt lat="47.66575" lon="6.14523">
        <ele>254</ele>
        <time>2018-09-24T12:01:35Z</time>
      </trkpt>
      <trkpt lat="47.66573" lon="6.14515">
        <ele>254</ele>
        <time>2018-09-24T12:01:44Z</time>
      </trkpt>
      <trkpt lat="47.66555" lon="6.14473">
        <ele>254</ele>
        <time>2018-09-24T12:01:47Z</time>
      </trkpt>
      <trkpt lat="47.6653" lon="6.14421">
        <ele>253</ele>
        <time>2018-09-24T12:01:50Z</time>
      </trkpt>
      <trkpt lat="47.66516" lon="6.144">
        <ele>253</ele>
        <time>2018-09-24T12:01:53Z</time>
      </trkpt>
      <trkpt lat="47.66488" lon="6.14361">
        <ele>251</ele>
        <time>2018-09-24T12:02:08Z</time>
      </trkpt>
      <trkpt lat="47.66438" lon="6.14292">
        <ele>248</ele>
        <time>2018-09-24T12:02:09Z</time>
      </trkpt>
      <trkpt lat="47.66406" lon="6.14245">
        <ele>242</ele>
        <time>2018-09-24T12:02:12Z</time>
      </trkpt>
      <trkpt lat="47.66386" lon="6.14212">
        <ele>240</ele>
        <time>2018-09-24T12:02:16Z</time>
      </trkpt>
      <trkpt lat="47.66359" lon="6.14169">
        <ele>238</ele>
        <time>2018-09-24T12:02:20Z</time>
      </trkpt>
      <trkpt lat="47.66327" lon="6.14129">
        <ele>236</ele>
        <time>2018-09-24T12:02:25Z</time>
      </trkpt>
      <trkpt lat="47.66295" lon="6.14087">
        <ele>235</ele>
        <time>2018-09-24T12:02:36Z</time>
      </trkpt>
      <trkpt lat="47.66283" lon="6.14067">
        <ele>234</ele>
        <time>2018-09-24T12:02:46Z</time>
      </trkpt>
      <trkpt lat="47.66283" lon="6.14067">
        <ele>234</ele>
        <time>2018-09-24T12:02:54Z</time>
      </trkpt>
      <trkpt lat="47.66243" lon="6.14001">
        <ele>232</ele>
        <time>2018-09-24T12:03:02Z</time>
      </trkpt>
      <trkpt lat="47.66212" lon="6.13928">
        <ele>230</ele>
        <time>2018-09-24T12:03:10Z</time>
      </trkpt>
      <trkpt lat="47.66172" lon="6.13852">
        <ele>228</ele>
        <time>2018-09-24T12:03:21Z</time>
      </trkpt>
      <trkpt lat="47.6616" lon="6.13824">
        <ele>226</ele>
        <time>2018-09-24T12:03:32Z</time>
      </trkpt>
      <trkpt lat="47.66152" lon="6.13796">
        <ele>225</ele>
        <time>2018-09-24T12:03:40Z</time>
      </trkpt>
      <trkpt lat="47.66133" lon="6.13706">
        <ele>223</ele>
        <time>2018-09-24T12:03:45Z</time>
      </trkpt>
      <trkpt lat="47.66126" lon="6.13683">
        <ele>223</ele>
        <time>2018-09-24T12:03:56Z</time>
      </trkpt>
      <trkpt lat="47.66116" lon="6.13662">
        <ele>222</ele>
        <time>2018-09-24T12:04:04Z</time>
      </trkpt>
      <trkpt lat="47.66085" lon="6.13624">
        <ele>222</ele>
        <time>2018-09-24T12:04:04Z</time>
      </trkpt>
      <trkpt lat="47.66072" lon="6.13609">
        <ele>223</ele>
        <time>2018-09-24T12:04:38Z</time>
      </trkpt>
      <trkpt lat="47.6605" lon="6.13588">
        <ele>223</ele>
        <time>2018-09-24T12:04:46Z</time>
      </trkpt>
      <trkpt lat="47.66013" lon="6.13556">
        <ele>223</ele>
        <time>2018-09-24T12:04:53Z</time>
      </trkpt>
      <trkpt lat="47.65996" lon="6.13537">
        <ele>224</ele>
        <time>2018-09-24T12:05:05Z</time>
      </trkpt>
      <trkpt lat="47.65989" lon="6.1352">
        <ele>224</ele>
        <time>2018-09-24T12:05:10Z</time>
      </trkpt>
      <trkpt lat="47.65984" lon="6.135">
        <ele>224</ele>
        <time>2018-09-24T12:05:11Z</time>
      </trkpt>
      <trkpt lat="47.65974" lon="6.13441">
        <ele>224</ele>
        <time>2018-09-24T12:05:17Z</time>
      </trkpt>
      <trkpt lat="47.65962" lon="6.13419">
        <ele>225</ele>
        <time>2018-09-24T12:05:27Z</time>
      </trkpt>
      <trkpt lat="47.65937" lon="6.13394">
        <ele>227</ele>
        <time>2018-09-24T12:05:31Z</time>
      </trkpt>
      <trkpt lat="47.65901" lon="6.13362">
        <ele>229</ele>
        <time>2018-09-24T12:05:36Z</time>
      </trkpt>
      <trkpt lat="47.65837" lon="6.13315">
        <ele>233</ele>
        <time>2018-09-24T12:05:45Z</time>
      </trkpt>
      <trkpt lat="47.65808" lon="6.13281">
        <ele>235</ele>
        <time>2018-09-24T12:05:59Z</time>
      </trkpt>
      <trkpt lat="47.65775" lon="6.13229">
        <ele>237</ele>
        <time>2018-09-24T12:06:03Z</time>
      </trkpt>
      <trkpt lat="47.65743" lon="6.13164">
        <ele>237</ele>
        <time>2018-09-24T12:06:23Z</time>
      </trkpt>
      <trkpt lat="47.65713" lon="6.13093">
        <ele>236</ele>
        <time>2018-09-24T12:06:32Z</time>
      </trkpt>
      <trkpt lat="47.65702" lon="6.13049">
        <ele>234</ele>
        <time>2018-09-24T12:06:34Z</time>
      </trkpt>
      <trkpt lat="47.65686" lon="6.12989">
        <ele>233</ele>
        <time>2018-09-24T12:06:38Z</time>
      </trkpt>
      <trkpt lat="47.65637" lon="6.12851">
        <ele>231</ele>
        <time>2018-09-24T12:07:05Z</time>
      </trkpt>
      <trkpt lat="47.65605" lon="6.12779">
        <ele>230</ele>
        <time>2018-09-24T12:07:12Z</time>
      </trkpt>
      <trkpt lat="47.65545" lon="6.12667">
        <ele>228</ele>
        <time>2018-09-24T12:07:14Z</time>
      </trkpt>
      <trkpt lat="47.65484" lon="6.12562">
        <ele>226</ele>
        <time>2018-09-24T12:07:17Z</time>
      </trkpt>
      <trkpt lat="47.65473" lon="6.12548">
        <ele>226</ele>
        <time>2018-09-24T12:07:24Z</time>
      </trkpt>
      <trkpt lat="47.65461" lon="6.12539">
        <ele>226</ele>
        <time>2018-09-24T12:07:24Z</time>
      </trkpt>
      <trkpt lat="47.65397" lon="6.12516">
        <ele>224</ele>
        <time>2018-09-24T12:07:51Z</time>
      </trkpt>
      <trkpt lat="47.65349" lon="6.12478">
        <ele>222</ele>
        <time>2018-09-24T12:08:18Z</time>
      </trkpt>
      <trkpt lat="47.65313" lon="6.12455">
        <ele>222</ele>
        <time>2018-09-24T12:08:21Z</time>
      </trkpt>
      <trkpt lat="47.65301" lon="6.1245">
        <ele>222</ele>
        <time>2018-09-24T12:08:21Z</time>
      </trkpt>
      <trkpt lat="47.65301" lon="6.12439">
        <ele>222</ele>
        <time>2018-09-24T12:08:47Z</time>
      </trkpt>
      <trkpt lat="47.65296" lon="6.12404">
        <ele>223</ele>
        <time>2018-09-24T12:09:31Z</time>
      </trkpt>
      <trkpt lat="47.65294" lon="6.12365">
        <ele>224</ele>
        <time>2018-09-24T12:09:36Z</time>
      </trkpt>
      <trkpt lat="47.65294" lon="6.12338">
        <ele>224</ele>
        <time>2018-09-24T12:09:41Z</time>
      </trkpt>
      <trkpt lat="47.65303" lon="6.12253">
        <ele>227</ele>
        <time>2018-09-24T12:09:47Z</time>
      </trkpt>
      <trkpt lat="47.65314" lon="6.12183">
        <ele>227</ele>
        <time>2018-09-24T12:09:50Z</time>
      </trkpt>
      <trkpt lat="47.65321" lon="6.12157">
        <ele>228</ele>
        <time>2018-09-24T12:09:51Z</time>
      </trkpt>
      <trkpt lat="47.65327" lon="6.12143">
        <ele>228</ele>
        <time>2018-09-24T12:09:53Z</time>
      </trkpt>
      <trkpt lat="47.65338" lon="6.12125">
        <ele>229</ele>
        <time>2018-09-24T12:09:56Z</time>
      </trkpt>
      <trkpt lat="47.65344" lon="6.12118">
        <ele>229</ele>
        <time>2018-09-24T12:10:02Z</time>
      </trkpt>
      <trkpt lat="47.65325" lon="6.1207">
        <ele>228</ele>
        <time>2018-09-24T12:10:07Z</time>
      </trkpt>
      <trkpt lat="47.65309" lon="6.12042">
        <ele>228</ele>
        <time>2018-09-24T12:10:30Z</time>
      </trkpt>
      <trkpt lat="47.65281" lon="6.12008">
        <ele>228</ele>
        <time>2018-09-24T12:10:36Z</time>
      </trkpt>
      <trkpt lat="47.65257" lon="6.11982">
        <ele>228</ele>
        <time>2018-09-24T12:10:36Z</time>
      </trkpt>
      <trkpt lat="47.65248" lon="6.11967">
        <ele>225</ele>
        <time>2018-09-24T12:10:37Z</time>
      </trkpt>
      <trkpt lat="47.65237" lon="6.1194">
        <ele>225</ele>
        <time>2018-09-24T12:10:45Z</time>
      </trkpt>
      <trkpt lat="47.65231" lon="6.11924">
        <ele>225</ele>
        <time>2018-09-24T12:10:53Z</time>
      </trkpt>
      <trkpt lat="47.65231" lon="6.11924">
        <ele>225</ele>
        <time>2018-09-24T12:11:02Z</time>
      </trkpt>
      <trkpt lat="47.6519" lon="6.11808">
        <ele>224</ele>
        <time>2018-09-24T12:11:11Z</time>
      </trkpt>
      <trkpt lat="47.65165" lon="6.11724">
        <ele>224</ele>
        <time>2018-09-24T12:11:14Z</time>
      </trkpt>
      <trkpt lat="47.65131" lon="6.11561">
        <ele>222</ele>
        <time>2018-09-24T12:11:17Z</time>
      </trkpt>
      <trkpt lat="47.65131" lon="6.11561">
        <ele>222</ele>
        <time>2018-09-24T12:11:20Z</time>
      </trkpt>
      <trkpt lat="47.65127" lon="6.11535">
        <ele>222</ele>
        <time>2018-09-24T12:11:35Z</time>
      </trkpt>
      <trkpt lat="47.65148" lon="6.11519">
        <ele>222</ele>
        <time>2018-09-24T12:11:36Z</time>
      </trkpt>
      <trkpt lat="47.65168" lon="6.11504">
        <ele>222</ele>
        <time>2018-09-24T12:11:39Z</time>
      </trkpt>
      <trkpt lat="47.65193" lon="6.1149">
        <ele>224</ele>
        <time>2018-09-24T12:11:43Z</time>
      </trkpt>
      <trkpt lat="47.65228" lon="6.11467">
        <ele>225</ele>
        <time>2018-09-24T12:11:47Z</time>
      </trkpt>
      <trkpt lat="47.65236" lon="6.1146">
        <ele>225</ele>
        <time>2018-09-24T12:11:52Z</time>
      </trkpt>
      <trkpt lat="47.6524" lon="6.1145">
        <ele>225</ele>
        <time>2018-09-24T12:12:03Z</time>
      </trkpt>
      <trkpt lat="47.65264" lon="6.11402">
        <ele>227</ele>
        <time>2018-09-24T12:12:13Z</time>
      </trkpt>
      <trkpt lat="47.65301" lon="6.11288">
        <ele>230</ele>
        <time>2018-09-24T12:12:21Z</time>
      </trkpt>
      <trkpt lat="47.65324" lon="6.11232">
        <ele>230</ele>
        <time>2018-09-24T12:12:29Z</time>
      </trkpt>
      <trkpt lat="47.65344" lon="6.11192">
        <ele>232</ele>
        <time>2018-09-24T12:12:37Z</time>
      </trkpt>
      <trkpt lat="47.65363" lon="6.11163">
        <ele>230</ele>
        <time>2018-09-24T12:12:48Z</time>
      </trkpt>
      <trkpt lat="47.65393" lon="6.11124">
        <ele>230</ele>
        <time>2018-09-24T12:12:59Z</time>
      </trkpt>
      <trkpt lat="47.65427" lon="6.11086">
        <ele>230</ele>
        <time>2018-09-24T12:13:07Z</time>
      </trkpt>
      <trkpt lat="47.65461" lon="6.11052">
        <ele>228</ele>
        <time>2018-09-24T12:13:12Z</time>
      </trkpt>
      <trkpt lat="47.65474" lon="6.11026">
        <ele>228</ele>
        <time>2018-09-24T12:13:23Z</time>
      </trkpt>
      <trkpt lat="47.65477" lon="6.11009">
        <ele>228</ele>
        <time>2018-09-24T12:13:31Z</time>
      </trkpt>
      <trkpt lat="47.65477" lon="6.10988">
        <ele>226</ele>
        <time>2018-09-24T12:13:31Z</time>
      </trkpt>
      <trkpt lat="47.6548" lon="6.10952">
        <ele>226</ele>
        <time>2018-09-24T12:14:05Z</time>
      </trkpt>
      <trkpt lat="47.65486" lon="6.10925">
        <ele>226</ele>
        <time>2018-09-24T12:14:13Z</time>
      </trkpt>
      <trkpt lat="47.65489" lon="6.10894">
        <ele>225</ele>
        <time>2018-09-24T12:14:20Z</time>
      </trkpt>
      <trkpt lat="47.65532" lon="6.10975">
        <ele>228</ele>
        <time>2018-09-24T12:14:32Z</time>
      </trkpt>
      <trkpt lat="47.6559" lon="6.10982">
        <ele>230</ele>
        <time>2018-09-24T12:14:37Z</time>
      </trkpt>
      <trkpt lat="47.65705" lon="6.11014">
        <ele>234</ele>
        <time>2018-09-24T12:14:38Z</time>
      </trkpt>
      <trkpt lat="47.65705" lon="6.11016">
        <ele>234</ele>
        <time>2018-09-24T12:14:44Z</time>
      </trkpt>
      <trkpt lat="47.65711" lon="6.11023">
        <ele>235</ele>
        <time>2018-09-24T12:14:54Z</time>
      </trkpt>
      <trkpt lat="47.6572" lon="6.11038">
        <ele>235</ele>
        <time>2018-09-24T12:14:58Z</time>
      </trkpt>
      <trkpt lat="47.65746" lon="6.11005">
        <ele>236</ele>
        <time>2018-09-24T12:15:03Z</time>
      </trkpt>
      <trkpt lat="47.65793" lon="6.1094">
        <ele>237</ele>
        <time>2018-09-24T12:15:12Z</time>
      </trkpt>
      <trkpt lat="47.65863" lon="6.10845">
        <ele>240</ele>
        <time>2018-09-24T12:15:26Z</time>
      </trkpt>
      <trkpt lat="47.65948" lon="6.10725">
        <ele>247</ele>
        <time>2018-09-24T12:15:30Z</time>
      </trkpt>
      <trkpt lat="47.65951" lon="6.10718">
        <ele>247</ele>
        <time>2018-09-24T12:15:50Z</time>
      </trkpt>
      <trkpt lat="47.66096" lon="6.10506">
        <ele>254</ele>
        <time>2018-09-24T12:15:59Z</time>
      </trkpt>
      <trkpt lat="47.66104" lon="6.10474">
        <ele>254</ele>
        <time>2018-09-24T12:16:01Z</time>
      </trkpt>
      <trkpt lat="47.66104" lon="6.10459">
        <ele>254</ele>
        <time>2018-09-24T12:16:05Z</time>
      </trkpt>
      <trkpt lat="47.66102" lon="6.10448">
        <ele>254</ele>
        <time>2018-09-24T12:16:32Z</time>
      </trkpt>
      <trkpt lat="47.66088" lon="6.10416">
        <ele>255</ele>
        <time>2018-09-24T12:16:39Z</time>
      </trkpt>
      <trkpt lat="47.66071" lon="6.10387">
        <ele>253</ele>
        <time>2018-09-24T12:16:41Z</time>
      </trkpt>
      <trkpt lat="47.66069" lon="6.10379">
        <ele>253</ele>
        <time>2018-09-24T12:16:44Z</time>
      </trkpt>
      <trkpt lat="47.66072" lon="6.10375">
        <ele>253</ele>
        <time>2018-09-24T12:16:51Z</time>
      </trkpt>
      <trkpt lat="47.66076" lon="6.10371">
        <ele>253</ele>
        <time>2018-09-24T12:16:51Z</time>
      </trkpt>
      <trkpt lat="47.66094" lon="6.10401">
        <ele>254</ele>
        <time>2018-09-24T12:17:18Z</time>
      </trkpt>
      <trkpt lat="47.66139" lon="6.10477">
        <ele>254</ele>
        <time>2018-09-24T12:17:45Z</time>
      </trkpt>
      <trkpt lat="47.66147" lon="6.1049">
        <ele>253</ele>
        <time>2018-09-24T12:17:48Z</time>
      </trkpt>
      <trkpt lat="47.66189" lon="6.1056">
        <ele>254</ele>
        <time>2018-09-24T12:17:48Z</time>
      </trkpt>
      <trkpt lat="47.66202" lon="6.10584">
        <ele>255</ele>
        <time>2018-09-24T12:18:14Z</time>
      </trkpt>
      <trkpt lat="47.66225" lon="6.10629">
        <ele>256</ele>
        <time>2018-09-24T12:18:58Z</time>
      </trkpt>
      <trkpt lat="47.6624" lon="6.10683">
        <ele>259</ele>
        <time>2018-09-24T12:19:03Z</time>
      </trkpt>
      <trkpt lat="47.6624" lon="6.10683">
        <ele>259</ele>
        <time>2018-09-24T12:19:08Z</time>
      </trkpt>
      <trkpt lat="47.66247" lon="6.10712">
        <ele>260</ele>
        <time>2018-09-24T12:19:14Z</time>
      </trkpt>
      <trkpt lat="47.66252" lon="6.10723">
        <ele>261</ele>
        <time>2018-09-24T12:19:17Z</time>
      </trkpt>
      <trkpt lat="47.66265" lon="6.10748">
        <ele>261</ele>
        <time>2018-09-24T12:19:18Z</time>
      </trkpt>
      <trkpt lat="47.66268" lon="6.10755">
        <ele>262</ele>
        <time>2018-09-24T12:19:20Z</time>
      </trkpt>
      <trkpt lat="47.66296" lon="6.10749">
        <ele>261</ele>
        <time>2018-09-24T12:19:23Z</time>
      </trkpt>
      <trkpt lat="47.66304" lon="6.10744">
        <ele>261</ele>
        <time>2018-09-24T12:19:29Z</time>
      </trkpt>
      <trkpt lat="47.66309" lon="6.10754">
        <ele>261</ele>
        <time>2018-09-24T12:19:34Z</time>
      </trkpt>
      <trkpt lat="47.6632" lon="6.10772">
        <ele>261</ele>
        <time>2018-09-24T12:19:57Z</time>
      </trkpt>
      <trkpt lat="47.66344" lon="6.10806">
        <ele>261</ele>
        <time>2018-09-24T12:20:03Z</time>
      </trkpt>
      <trkpt lat="47.66371" lon="6.10845">
        <ele>261</ele>
        <time>2018-09-24T12:20:03Z</time>
      </trkpt>
      <trkpt lat="47.66383" lon="6.10868">
        <ele>261</ele>
        <time>2018-09-24T12:20:50Z</time>
      </trkpt>
      <trkpt lat="47.66407" lon="6.10913">
        <ele>261</ele>
        <time>2018-09-24T12:20:52Z</time>
      </trkpt>
      <trkpt lat="47.66428" lon="6.1097">
        <ele>260</ele>
        <time>2018-09-24T12:20:54Z</time>
      </trkpt>
      <trkpt lat="47.66482" lon="6.11091">
        <ele>258</ele>
        <time>2018-09-24T12:21:03Z</time>
      </trkpt>
      <trkpt lat="47.66518" lon="6.11173">
        <ele>259</ele>
        <time>2018-09-24T12:21:15Z</time>
      </trkpt>
      <trkpt lat="47.66534" lon="6.11217">
        <ele>260</ele>
        <time>2018-09-24T12:21:27Z</time>
      </trkpt>
      <trkpt lat="47.66535" lon="6.11224">
        <ele>260</ele>
        <time>2018-09-24T12:22:22Z</time>
      </trkpt>
      <trkpt lat="47.66549" lon="6.11234">
        <ele>260</ele>
        <time>2018-09-24T12:23:28Z</time>
      </trkpt>
      <trkpt lat="47.66568" lon="6.11237">
        <ele>261</ele>
        <time>2018-09-24T12:23:56Z</time>
      </trkpt>
      <trkpt lat="47.66579" lon="6.11237">
        <ele>262</ele>
        <time>2018-09-24T12:24:01Z</time>
      </trkpt>
      <trkpt lat="47.66592" lon="6.1124">
        <ele>264</ele>
        <time>2018-09-24T12:24:03Z</time>
      </trkpt>
      <trkpt lat="47.66602" lon="6.11245">
        <ele>264</ele>
        <time>2018-09-24T12:24:09Z</time>
      </trkpt>
      <trkpt lat="47.66614" lon="6.11256">
        <ele>264</ele>
        <time>2018-09-24T12:24:18Z</time>
      </trkpt>
      <trkpt lat="47.667" lon="6.1136">
        <ele>266</ele>
        <time>2018-09-24T12:24:20Z</time>
      </trkpt>
      <trkpt lat="47.6674" lon="6.11411">
        <ele>267</ele>
        <time>2018-09-24T12:24:23Z</time>
      </trkpt>
      <trkpt lat="47.66756" lon="6.11429">
        <ele>266</ele>
        <time>2018-09-24T12:24:28Z</time>
      </trkpt>
      <trkpt lat="47.66774" lon="6.11444">
        <ele>266</ele>
        <time>2018-09-24T12:24:36Z</time>
      </trkpt>
      <trkpt lat="47.66796" lon="6.11451">
        <ele>266</ele>
        <time>2018-09-24T12:24:37Z</time>
      </trkpt>
      <trkpt lat="47.66804" lon="6.11456">
        <ele>266</ele>
        <time>2018-09-24T12:24:48Z</time>
      </trkpt>
      <trkpt lat="47.6681" lon="6.11463">
        <ele>265</ele>
        <time>2018-09-24T12:25:03Z</time>
      </trkpt>
      <trkpt lat="47.66814" lon="6.11472">
        <ele>265</ele>
        <time>2018-09-24T12:25:18Z</time>
      </trkpt>
      <trkpt lat="47.66817" lon="6.1149">
        <ele>264</ele>
        <time>2018-09-24T12:25:57Z</time>
      </trkpt>
      <trkpt lat="47.6682" lon="6.11516">
        <ele>262</ele>
        <time>2018-09-24T12:26:17Z</time>
      </trkpt>
      <trkpt lat="47.66824" lon="6.11543">
        <ele>261</ele>
        <time>2018-09-24T12:26:17Z</time>
      </trkpt>
      <trkpt lat="47.6683" lon="6.11561">
        <ele>260</ele>
        <time>2018-09-24T12:26:18Z</time>
      </trkpt>
      <trkpt lat="47.66845" lon="6.11582">
        <ele>259</ele>
        <time>2018-09-24T12:26:26Z</time>
      </trkpt>
      <trkpt lat="47.66875" lon="6.1161">
        <ele>255</ele>
        <time>2018-09-24T12:26:34Z</time>
      </trkpt>
      <trkpt lat="47.66905" lon="6.11634">
        <ele>254</ele>
        <time>2018-09-24T12:26:43Z</time>
      </trkpt>
      <trkpt lat="47.66963" lon="6.11682">
        <ele>255</ele>
        <time>2018-09-24T12:26:52Z</time>
      </trkpt>
      <trkpt lat="47.66992" lon="6.11713">
        <ele>256</ele>
        <time>2018-09-24T12:26:55Z</time>
      </trkpt>
      <trkpt lat="47.67031" lon="6.11769">
        <ele>257</ele>
        <time>2018-09-24T12:26:58Z</time>
      </trkpt>
      <trkpt lat="47.67059" lon="6.1182">
        <ele>257</ele>
        <time>2018-09-24T12:27:01Z</time>
      </trkpt>
      <trkpt lat="47.67059" lon="6.1182">
        <ele>257</ele>
        <time>2018-09-24T12:27:16Z</time>
      </trkpt>
      <trkpt lat="47.67082" lon="6.11863">
        <ele>254</ele>
        <time>2018-09-24T12:27:17Z</time>
      </trkpt>
      <trkpt lat="47.67095" lon="6.11894">
        <ele>256</ele>
        <time>2018-09-24T12:27:20Z</time>
      </trkpt>
      <trkpt lat="47.6712" lon="6.11991">
        <ele>251</ele>
        <time>2018-09-24T12:27:24Z</time>
      </trkpt>
      <trkpt lat="47.67141" lon="6.12072">
        <ele>248</ele>
        <time>2018-09-24T12:27:28Z</time>
      </trkpt>
      <trkpt lat="47.67152" lon="6.12115">
        <ele>246</ele>
        <time>2018-09-24T12:27:33Z</time>
      </trkpt>
      <trkpt lat="47.67158" lon="6.12137">
        <ele>246</ele>
        <time>2018-09-24T12:27:44Z</time>
      </trkpt>
      <trkpt lat="47.67168" lon="6.12158">
        <ele>247</ele>
        <time>2018-09-24T12:27:54Z</time>
      </trkpt>
      <trkpt lat="47.67185" lon="6.12192">
        <ele>247</ele>
        <time>2018-09-24T12:28:02Z</time>
      </trkpt>
      <trkpt lat="47.6722" lon="6.1225">
        <ele>245</ele>
        <time>2018-09-24T12:28:10Z</time>
      </trkpt>
      <trkpt lat="47.67254" lon="6.12298">
        <ele>246</ele>
        <time>2018-09-24T12:28:18Z</time>
      </trkpt>
      <trkpt lat="47.67264" lon="6.12307">
        <ele>246</ele>
        <time>2018-09-24T12:28:29Z</time>
      </trkpt>
      <trkpt lat="47.67293" lon="6.1234">
        <ele>243</ele>
        <time>2018-09-24T12:28:40Z</time>
      </trkpt>
      <trkpt lat="47.67323" lon="6.12372">
        <ele>243</ele>
        <time>2018-09-24T12:28:48Z</time>
      </trkpt>
      <trkpt lat="47.67355" lon="6.12387">
        <ele>243</ele>
        <time>2018-09-24T12:28:53Z</time>
      </trkpt>
      <trkpt lat="47.6738" lon="6.12401">
        <ele>243</ele>
        <time>2018-09-24T12:29:04Z</time>
      </trkpt>
      <trkpt lat="47.67391" lon="6.12404">
        <ele>243</ele>
        <time>2018-09-24T12:29:12Z</time>
      </trkpt>
      <trkpt lat="47.674" lon="6.1241">
        <ele>243</ele>
        <time>2018-09-24T12:29:12Z</time>
      </trkpt>
      <trkpt lat="47.67429" lon="6.12424">
        <ele>242</ele>
        <time>2018-09-24T12:29:46Z</time>
      </trkpt>
      <trkpt lat="47.67497" lon="6.1246">
        <ele>241</ele>
        <time>2018-09-24T12:29:54Z</time>
      </trkpt>
      <trkpt lat="47.67519" lon="6.12474">
        <ele>243</ele>
        <time>2018-09-24T12:30:01Z</time>
      </trkpt>
      <trkpt lat="47.67532" lon="6.12489">
        <ele>243</ele>
        <time>2018-09-24T12:30:13Z</time>
      </trkpt>
      <trkpt lat="47.67539" lon="6.12508">
        <ele>243</ele>
        <time>2018-09-24T12:30:18Z</time>
      </trkpt>
      <trkpt lat="47.6754" lon="6.12527">
        <ele>242</ele>
        <time>2018-09-24T12:30:19Z</time>
      </trkpt>
      <trkpt lat="47.67535" lon="6.12552">
        <ele>242</ele>
        <time>2018-09-24T12:30:25Z</time>
      </trkpt>
      <trkpt lat="47.67522" lon="6.12583">
        <ele>241</ele>
        <time>2018-09-24T12:30:35Z</time>
      </trkpt>
      <trkpt lat="47.67513" lon="6.12602">
        <ele>241</ele>
        <time>2018-09-24T12:30:39Z</time>
      </trkpt>
      <trkpt lat="47.67523" lon="6.12625">
        <ele>241</ele>
        <time>2018-09-24T12:30:44Z</time>
      </trkpt>
      <trkpt lat="47.6754" lon="6.12666">
        <ele>242</ele>
        <time>2018-09-24T12:30:53Z</time>
      </trkpt>
      <trkpt lat="47.67573" lon="6.12749">
        <ele>245</ele>
        <time>2018-09-24T12:31:07Z</time>
      </trkpt>
      <trkpt lat="47.67588" lon="6.12787">
        <ele>247</ele>
        <time>2018-09-24T12:31:11Z</time>
      </trkpt>
      <trkpt lat="47.67604" lon="6.12819">
        <ele>247</ele>
        <time>2018-09-24T12:31:31Z</time>
      </trkpt>
      <trkpt lat="47.67645" lon="6.12866">
        <ele>249</ele>
        <time>2018-09-24T12:31:40Z</time>
      </trkpt>
      <trkpt lat="47.67702" lon="6.12932">
        <ele>252</ele>
        <time>2018-09-24T12:31:42Z</time>
      </trkpt>
      <trkpt lat="47.6776" lon="6.12997">
        <ele>254</ele>
        <time>2018-09-24T12:31:46Z</time>
      </trkpt>
      <trkpt lat="47.67783" lon="6.1304">
        <ele>257</ele>
        <time>2018-09-24T12:32:13Z</time>
      </trkpt>
      <trkpt lat="47.67819" lon="6.13116">
        <ele>259</ele>
        <time>2018-09-24T12:32:20Z</time>
      </trkpt>
      <trkpt lat="47.67819" lon="6.13116">
        <ele>259</ele>
        <time>2018-09-24T12:32:22Z</time>
      </trkpt>
      <trkpt lat="47.6784" lon="6.1316">
        <ele>260</ele>
        <time>2018-09-24T12:32:25Z</time>
      </trkpt>
      <trkpt lat="47.67875" lon="6.13223">
        <ele>263</ele>
        <time>2018-09-24T12:32:32Z</time>
      </trkpt>
      <trkpt lat="47.67892" lon="6.13249">
        <ele>263</ele>
        <time>2018-09-24T12:32:32Z</time>
      </trkpt>
      <trkpt lat="47.67909" lon="6.13268">
        <ele>263</ele>
        <time>2018-09-24T12:32:59Z</time>
      </trkpt>
      <trkpt lat="47.67944" lon="6.13304">
        <ele>262</ele>
        <time>2018-09-24T12:33:26Z</time>
      </trkpt>
      <trkpt lat="47.68007" lon="6.13369">
        <ele>259</ele>
        <time>2018-09-24T12:33:29Z</time>
      </trkpt>
      <trkpt lat="47.68083" lon="6.13446">
        <ele>259</ele>
        <time>2018-09-24T12:33:29Z</time>
      </trkpt>
      <trkpt lat="47.6814" lon="6.13506">
        <ele>263</ele>
        <time>2018-09-24T12:33:55Z</time>
      </trkpt>
      <trkpt lat="47.68181" lon="6.13549">
        <ele>267</ele>
        <time>2018-09-24T12:34:39Z</time>
      </trkpt>
      <trkpt lat="47.68301" lon="6.13674">
        <ele>277</ele>
        <time>2018-09-24T12:34:44Z</time>
      </trkpt>
      <trkpt lat="47.68356" lon="6.1373">
        <ele>281</ele>
        <time>2018-09-24T12:34:49Z</time>
      </trkpt>
      <trkpt lat="47.68397" lon="6.13774">
        <ele>283</ele>
        <time>2018-09-24T12:34:55Z</time>
      </trkpt>
      <trkpt lat="47.68385" lon="6.13809">
        <ele>283</ele>
        <time>2018-09-24T12:34:58Z</time>
      </trkpt>
      <trkpt lat="47.68372" lon="6.1384">
        <ele>283</ele>
        <time>2018-09-24T12:34:59Z</time>
      </trkpt>
      <trkpt lat="47.68361" lon="6.13861">
        <ele>283</ele>
        <time>2018-09-24T12:35:01Z</time>
      </trkpt>
      <trkpt lat="47.68336" lon="6.13898">
        <ele>283</ele>
        <time>2018-09-24T12:35:04Z</time>
      </trkpt>
      <trkpt lat="47.68322" lon="6.13917">
        <ele>282</ele>
        <time>2018-09-24T12:35:10Z</time>
      </trkpt>
      <trkpt lat="47.68322" lon="6.13917">
        <ele>282</ele>
        <time>2018-09-24T12:35:15Z</time>
      </trkpt>
      <trkpt lat="47.68292" lon="6.13961">
        <ele>281</ele>
        <time>2018-09-24T12:35:38Z</time>
      </trkpt>
      <trkpt lat="47.68246" lon="6.1405">
        <ele>278</ele>
        <time>2018-09-24T12:35:44Z</time>
      </trkpt>
      <trkpt lat="47.68223" lon="6.14093">
        <ele>277</ele>
        <time>2018-09-24T12:35:44Z</time>
      </trkpt>
      <trkpt lat="47.68183" lon="6.1415">
        <ele>276</ele>
        <time>2018-09-24T12:36:31Z</time>
      </trkpt>
      <trkpt lat="47.68092" lon="6.14261">
        <ele>270</ele>
        <time>2018-09-24T12:36:33Z</time>
      </trkpt>
      <trkpt lat="47.68057" lon="6.14303">
        <ele>268</ele>
        <time>2018-09-24T12:36:35Z</time>
      </trkpt>
      <trkpt lat="47.68007" lon="6.14365">
        <ele>267</ele>
        <time>2018-09-24T12:36:44Z</time>
      </trkpt>
      <trkpt lat="47.67938" lon="6.14467">
        <ele>265</ele>
        <time>2018-09-24T12:36:56Z</time>
      </trkpt>
      <trkpt lat="47.67917" lon="6.14494">
        <ele>264</ele>
        <time>2018-09-24T12:37:08Z</time>
      </trkpt>
      <trkpt lat="47.67875" lon="6.14538">
        <ele>262</ele>
        <time>2018-09-24T12:38:03Z</time>
      </trkpt>
      <trkpt lat="47.67843" lon="6.14561">
        <ele>262</ele>
        <time>2018-09-24T12:39:09Z</time>
      </trkpt>
      <trkpt lat="47.67766" lon="6.14608">
        <ele>260</ele>
        <time>2018-09-24T12:39:37Z</time>
      </trkpt>
      <trkpt lat="47.67677" lon="6.14662">
        <ele>258</ele>
        <time>2018-09-24T12:39:42Z</time>
      </trkpt>
      <trkpt lat="47.67623" lon="6.14698">
        <ele>264</ele>
        <time>2018-09-24T12:39:44Z</time>
      </trkpt>
      <trkpt lat="47.67599" lon="6.14718">
        <ele>265</ele>
        <time>2018-09-24T12:39:50Z</time>
      </trkpt>
      <trkpt lat="47.67553" lon="6.14761">
        <ele>266</ele>
        <time>2018-09-24T12:39:59Z</time>
      </trkpt>
      <trkpt lat="47.67494" lon="6.14815">
        <ele>269</ele>
        <time>2018-09-24T12:40:01Z</time>
      </trkpt>
      <trkpt lat="47.67385" lon="6.14912">
        <ele>268</ele>
        <time>2018-09-24T12:40:04Z</time>
      </trkpt>
      <trkpt lat="47.67265" lon="6.15019">
        <ele>260</ele>
        <time>2018-09-24T12:40:09Z</time>
      </trkpt>
      <trkpt lat="47.67265" lon="6.15019">
        <ele>260</ele>
        <time>2018-09-24T12:40:17Z</time>
      </trkpt>
      <trkpt lat="47.67187" lon="6.15087">
        <ele>263</ele>
        <time>2018-09-24T12:40:18Z</time>
      </trkpt>
      <trkpt lat="47.67166" lon="6.15104">
        <ele>264</ele>
        <time>2018-09-24T12:40:29Z</time>
      </trkpt>
      <trkpt lat="47.67147" lon="6.15117">
        <ele>263</ele>
        <time>2018-09-24T12:40:44Z</time>
      </trkpt>
      <trkpt lat="47.67094" lon="6.15137">
        <ele>263</ele>
        <time>2018-09-24T12:40:59Z</time>
      </trkpt>
      <trkpt lat="47.67043" lon="6.15154">
        <ele>263</ele>
        <time>2018-09-24T12:41:38Z</time>
      </trkpt>
      <trkpt lat="47.67016" lon="6.1516">
        <ele>263</ele>
        <time>2018-09-24T12:41:58Z</time>
      </trkpt>
      <trkpt lat="47.66995" lon="6.15156">
        <ele>263</ele>
        <time>2018-09-24T12:41:58Z</time>
      </trkpt>
      <trkpt lat="47.66968" lon="6.15142">
        <ele>264</ele>
        <time>2018-09-24T12:42:23Z</time>
      </trkpt>
      <trkpt lat="47.66955" lon="6.15133">
        <ele>264</ele>
        <time>2018-09-24T12:42:31Z</time>
      </trkpt>
      <trkpt lat="47.66936" lon="6.15113">
        <ele>264</ele>
        <time>2018-09-24T12:42:46Z</time>
      </trkpt>
      <trkpt lat="47.66934" lon="6.15134">
        <ele>264</ele>
        <time>2018-09-24T12:42:56Z</time>
      </trkpt>
      <trkpt lat="47.66932" lon="6.15147">
        <ele>264</ele>
        <time>2018-09-24T12:42:59Z</time>
      </trkpt>
      <trkpt lat="47.66922" lon="6.15184">
        <ele>264</ele>
        <time>2018-09-24T12:43:24Z</time>
      </trkpt>
      <trkpt lat="47.66913" lon="6.15205">
        <ele>264</ele>
        <time>2018-09-24T12:44:00Z</time>
      </trkpt>
      <trkpt lat="47.66928" lon="6.15256">
        <ele>263</ele>
        <time>2018-09-24T12:44:13Z</time>
      </trkpt>
      <trkpt lat="47.66942" lon="6.15312">
        <ele>261</ele>
        <time>2018-09-24T12:44:13Z</time>
      </trkpt>
      <trkpt lat="47.66947" lon="6.15368">
        <ele>259</ele>
        <time>2018-09-24T12:44:14Z</time>
      </trkpt>
      <trkpt lat="47.66953" lon="6.15544">
        <ele>260</ele>
        <time>2018-09-24T12:44:22Z</time>
      </trkpt>
      <trkpt lat="47.6696" lon="6.15692">
        <ele>260</ele>
        <time>2018-09-24T12:44:30Z</time>
      </trkpt>
      <trkpt lat="47.66983" lon="6.1596">
        <ele>255</ele>
        <time>2018-09-24T12:44:39Z</time>
      </trkpt>
      <trkpt lat="47.66991" lon="6.16076">
        <ele>252</ele>
        <time>2018-09-24T12:44:48Z</time>
      </trkpt>
      <trkpt lat="47.66989" lon="6.16108">
        <ele>250</ele>
        <time>2018-09-24T12:44:51Z</time>
      </trkpt>
      <trkpt lat="47.66977" lon="6.1617">
        <ele>245</ele>
        <time>2018-09-24T12:44:54Z</time>
      </trkpt>
      <trkpt lat="47.66962" lon="6.16238">
        <ele>244</ele>
        <time>2018-09-24T12:44:57Z</time>
      </trkpt>
      <trkpt lat="47.66961" lon="6.16252">
        <ele>242</ele>
        <time>2018-09-24T12:45:12Z</time>
      </trkpt>
      <trkpt lat="47.66967" lon="6.16279">
        <ele>242</ele>
        <time>2018-09-24T12:45:13Z</time>
      </trkpt>
      <trkpt lat="47.66979" lon="6.16329">
        <ele>240</ele>
        <time>2018-09-24T12:45:16Z</time>
      </trkpt>
      <trkpt lat="47.6698" lon="6.16352">
        <ele>238</ele>
        <time>2018-09-24T12:45:20Z</time>
      </trkpt>
      <trkpt lat="47.66975" lon="6.16385">
        <ele>238</ele>
        <time>2018-09-24T12:45:24Z</time>
      </trkpt>
      <trkpt lat="47.66958" lon="6.16457">
        <ele>235</ele>
        <time>2018-09-24T12:45:29Z</time>
      </trkpt>
      <trkpt lat="47.66952" lon="6.16539">
        <ele>232</ele>
        <time>2018-09-24T12:45:40Z</time>
      </trkpt>
      <trkpt lat="47.6694" lon="6.1661">
        <ele>230</ele>
        <time>2018-09-24T12:45:50Z</time>
      </trkpt>
      <trkpt lat="47.66927" lon="6.16691">
        <ele>231</ele>
        <time>2018-09-24T12:45:58Z</time>
      </trkpt>
      <trkpt lat="47.6693" lon="6.16719">
        <ele>232</ele>
        <time>2018-09-24T12:46:06Z</time>
      </trkpt>
      <trkpt lat="47.66942" lon="6.16759">
        <ele>232</ele>
        <time>2018-09-24T12:46:14Z</time>
      </trkpt>
      <trkpt lat="47.66954" lon="6.16779">
        <ele>232</ele>
        <time>2018-09-24T12:46:25Z</time>
      </trkpt>
      <trkpt lat="47.66986" lon="6.16811">
        <ele>231</ele>
        <time>2018-09-24T12:46:36Z</time>
      </trkpt>
      <trkpt lat="47.67034" lon="6.16855">
        <ele>229</ele>
        <time>2018-09-24T12:46:44Z</time>
      </trkpt>
      <trkpt lat="47.67059" lon="6.1689">
        <ele>228</ele>
        <time>2018-09-24T12:46:49Z</time>
      </trkpt>
      <trkpt lat="47.6707" lon="6.16915">
        <ele>227</ele>
        <time>2018-09-24T12:47:00Z</time>
      </trkpt>
      <trkpt lat="47.67072" lon="6.16938">
        <ele>227</ele>
        <time>2018-09-24T12:47:08Z</time>
      </trkpt>
      <trkpt lat="47.67067" lon="6.16979">
        <ele>227</ele>
        <time>2018-09-24T12:47:08Z</time>
      </trkpt>
      <trkpt lat="47.67058" lon="6.17035">
        <ele>226</ele>
        <time>2018-09-24T12:47:42Z</time>
      </trkpt>
      <trkpt lat="47.67057" lon="6.17065">
        <ele>226</ele>
        <time>2018-09-24T12:47:50Z</time>
      </trkpt>
      <trkpt lat="47.67061" lon="6.17139">
        <ele>226</ele>
        <time>2018-09-24T12:47:57Z</time>
      </trkpt>
      <trkpt lat="47.67063" lon="6.17202">
        <ele>229</ele>
        <time>2018-09-24T12:48:09Z</time>
      </trkpt>
      <trkpt lat="47.67063" lon="6.17202">
        <ele>229</ele>
        <time>2018-09-24T12:48:14Z</time>
      </trkpt>
      <trkpt lat="47.67063" lon="6.17229">
        <ele>231</ele>
        <time>2018-09-24T12:48:15Z</time>
      </trkpt>
      <trkpt lat="47.67049" lon="6.17269">
        <ele>235</ele>
        <time>2018-09-24T12:48:21Z</time>
      </trkpt>
      <trkpt lat="47.67028" lon="6.17317">
        <ele>236</ele>
        <time>2018-09-24T12:48:31Z</time>
      </trkpt>
      <trkpt lat="47.67012" lon="6.17338">
        <ele>236</ele>
        <time>2018-09-24T12:48:35Z</time>
      </trkpt>
      <trkpt lat="47.6698" lon="6.17364">
        <ele>232</ele>
        <time>2018-09-24T12:48:40Z</time>
      </trkpt>
      <trkpt lat="47.66921" lon="6.17403">
        <ele>230</ele>
        <time>2018-09-24T12:48:49Z</time>
      </trkpt>
      <trkpt lat="47.66876" lon="6.17426">
        <ele>229</ele>
        <time>2018-09-24T12:49:03Z</time>
      </trkpt>
      <trkpt lat="47.66863" lon="6.17429">
        <ele>228</ele>
        <time>2018-09-24T12:49:07Z</time>
      </trkpt>
      <trkpt lat="47.66824" lon="6.17428">
        <ele>228</ele>
        <time>2018-09-24T12:49:27Z</time>
      </trkpt>
      <trkpt lat="47.66779" lon="6.17429">
        <ele>228</ele>
        <time>2018-09-24T12:49:36Z</time>
      </trkpt>
      <trkpt lat="47.6671" lon="6.17441">
        <ele>228</ele>
        <time>2018-09-24T12:49:38Z</time>
      </trkpt>
      <trkpt lat="47.66682" lon="6.17447">
        <ele>228</ele>
        <time>2018-09-24T12:49:42Z</time>
      </trkpt>
      <trkpt lat="47.66627" lon="6.17469">
        <ele>227</ele>
        <time>2018-09-24T12:50:09Z</time>
      </trkpt>
      <trkpt lat="47.66567" lon="6.17498">
        <ele>227</ele>
        <time>2018-09-24T12:50:16Z</time>
      </trkpt>
      <trkpt lat="47.66519" lon="6.17531">
        <ele>227</ele>
        <time>2018-09-24T12:50:18Z</time>
      </trkpt>
      <trkpt lat="47.6642" lon="6.17595">
        <ele>226</ele>
        <time>2018-09-24T12:50:21Z</time>
      </trkpt>
      <trkpt lat="47.66406" lon="6.17611">
        <ele>226</ele>
        <time>2018-09-24T12:50:28Z</time>
      </trkpt>
      <trkpt lat="47.66393" lon="6.17631">
        <ele>226</ele>
        <time>2018-09-24T12:50:28Z</time>
      </trkpt>
      <trkpt lat="47.66366" lon="6.17675">
        <ele>226</ele>
        <time>2018-09-24T12:50:55Z</time>
      </trkpt>
      <trkpt lat="47.66353" lon="6.17711">
        <ele>226</ele>
        <time>2018-09-24T12:51:22Z</time>
      </trkpt>
      <trkpt lat="47.66342" lon="6.17775">
        <ele>227</ele>
        <time>2018-09-24T12:51:25Z</time>
      </trkpt>
      <trkpt lat="47.66337" lon="6.17825">
        <ele>227</ele>
        <time>2018-09-24T12:51:25Z</time>
      </trkpt>
      <trkpt lat="47.66328" lon="6.17967">
        <ele>227</ele>
        <time>2018-09-24T12:51:51Z</time>
      </trkpt>
      <trkpt lat="47.66309" lon="6.17973">
        <ele>228</ele>
        <time>2018-09-24T12:52:35Z</time>
      </trkpt>
      <trkpt lat="47.66291" lon="6.17972">
        <ele>228</ele>
        <time>2018-09-24T12:52:40Z</time>
      </trkpt>
      <trkpt lat="47.6623" lon="6.17963">
        <ele>229</ele>
        <time>2018-09-24T12:52:45Z</time>
      </trkpt>
      <trkpt lat="47.66184" lon="6.17952">
        <ele>230</ele>
        <time>2018-09-24T12:52:51Z</time>
      </trkpt>
      <trkpt lat="47.66155" lon="6.17949">
        <ele>230</ele>
        <time>2018-09-24T12:52:54Z</time>
      </trkpt>
      <trkpt lat="47.66134" lon="6.1795">
        <ele>231</ele>
        <time>2018-09-24T12:52:55Z</time>
      </trkpt>
      <trkpt lat="47.66092" lon="6.1795">
        <ele>231</ele>
        <time>2018-09-24T12:52:57Z</time>
      </trkpt>
      <trkpt lat="47.65994" lon="6.1795">
        <ele>231</ele>
        <time>2018-09-24T12:53:00Z</time>
      </trkpt>
      <trkpt lat="47.6593" lon="6.17948">
        <ele>232</ele>
        <time>2018-09-24T12:53:06Z</time>
      </trkpt>
      <trkpt lat="47.65883" lon="6.17952">
        <ele>233</ele>
        <time>2018-09-24T12:53:11Z</time>
      </trkpt>
      <trkpt lat="47.65862" lon="6.17957">
        <ele>233</ele>
        <time>2018-09-24T12:53:34Z</time>
      </trkpt>
      <trkpt lat="47.6585" lon="6.17963">
        <ele>234</ele>
        <time>2018-09-24T12:53:40Z</time>
      </trkpt>
      <trkpt lat="47.65837" lon="6.17974">
        <ele>235</ele>
        <time>2018-09-24T12:53:40Z</time>
      </trkpt>
      <trkpt lat="47.65805" lon="6.18002">
        <ele>239</ele>
        <time>2018-09-24T12:54:27Z</time>
      </trkpt>
      <trkpt lat="47.65782" lon="6.18022">
        <ele>239</ele>
        <time>2018-09-24T12:54:29Z</time>
      </trkpt>
      <trkpt lat="47.65741" lon="6.18045">
        <ele>233</ele>
        <time>2018-09-24T12:54:31Z</time>
      </trkpt>
      <trkpt lat="47.6572" lon="6.1806">
        <ele>233</ele>
        <time>2018-09-24T12:54:40Z</time>
      </trkpt>
      <trkpt lat="47.65704" lon="6.1808">
        <ele>232</ele>
        <time>2018-09-24T12:54:52Z</time>
      </trkpt>
      <trkpt lat="47.65689" lon="6.18108">
        <ele>237</ele>
        <time>2018-09-24T12:55:04Z</time>
      </trkpt>
      <trkpt lat="47.65681" lon="6.18123">
        <ele>237</ele>
        <time>2018-09-24T12:55:59Z</time>
      </trkpt>
      <trkpt lat="47.6567" lon="6.18138">
        <ele>238</ele>
        <time>2018-09-24T12:57:05Z</time>
      </trkpt>
      <trkpt lat="47.65658" lon="6.18149">
        <ele>233</ele>
        <time>2018-09-24T12:57:33Z</time>
      </trkpt>
      <trkpt lat="47.65645" lon="6.18161">
        <ele>233</ele>
        <time>2018-09-24T12:57:38Z</time>
      </trkpt>
      <trkpt lat="47.65638" lon="6.1817">
        <ele>238</ele>
        <time>2018-09-24T12:57:40Z</time>
      </trkpt>
      <trkpt lat="47.6562" lon="6.18163">
        <ele>231</ele>
        <time>2018-09-24T12:57:46Z</time>
      </trkpt>
      <trkpt lat="47.65607" lon="6.1817">
        <ele>235</ele>
        <time>2018-09-24T12:57:55Z</time>
      </trkpt>
      <trkpt lat="47.65598" lon="6.18181">
        <ele>234</ele>
        <time>2018-09-24T12:57:57Z</time>
      </trkpt>
      <trkpt lat="47.6558" lon="6.18209">
        <ele>233</ele>
        <time>2018-09-24T12:58:00Z</time>
      </trkpt>
      <trkpt lat="47.65566" lon="6.18222">
        <ele>234</ele>
        <time>2018-09-24T12:58:05Z</time>
      </trkpt>
      <trkpt lat="47.65544" lon="6.18238">
        <ele>233</ele>
        <time>2018-09-24T12:58:13Z</time>
      </trkpt>
      <trkpt lat="47.65494" lon="6.18257">
        <ele>234</ele>
        <time>2018-09-24T12:58:14Z</time>
      </trkpt>
      <trkpt lat="47.65468" lon="6.18262">
        <ele>237</ele>
        <time>2018-09-24T12:58:25Z</time>
      </trkpt>
      <trkpt lat="47.65451" lon="6.18261">
        <ele>237</ele>
        <time>2018-09-24T12:58:40Z</time>
      </trkpt>
      <trkpt lat="47.65433" lon="6.18256">
        <ele>234</ele>
        <time>2018-09-24T12:58:55Z</time>
      </trkpt>
      <trkpt lat="47.65408" lon="6.18242">
        <ele>230</ele>
        <time>2018-09-24T12:59:34Z</time>
      </trkpt>
      <trkpt lat="47.65406" lon="6.18241">
        <ele>230</ele>
        <time>2018-09-24T12:59:54Z</time>
      </trkpt>
      <trkpt lat="47.65406" lon="6.18241">
        <ele>230</ele>
        <time>2018-09-24T12:59:54Z</time>
      </trkpt>
      <trkpt lat="47.65383" lon="6.18225">
        <ele>232</ele>
        <time>2018-09-24T13:00:19Z</time>
      </trkpt>
      <trkpt lat="47.65351" lon="6.18193">
        <ele>232</ele>
        <time>2018-09-24T13:00:27Z</time>
      </trkpt>
      <trkpt lat="47.65335" lon="6.18174">
        <ele>231</ele>
        <time>2018-09-24T13:00:42Z</time>
      </trkpt>
      <trkpt lat="47.6532" lon="6.18149">
        <ele>234</ele>
        <time>2018-09-24T13:00:52Z</time>
      </trkpt>
      <trkpt lat="47.65312" lon="6.18131">
        <ele>235</ele>
        <time>2018-09-24T13:00:55Z</time>
      </trkpt>
      <trkpt lat="47.65305" lon="6.18103">
        <ele>235</ele>
        <time>2018-09-24T13:01:20Z</time>
      </trkpt>
      <trkpt lat="47.65298" lon="6.18058">
        <ele>230</ele>
        <time>2018-09-24T13:01:56Z</time>
      </trkpt>
      <trkpt lat="47.65292" lon="6.18027">
        <ele>230</ele>
        <time>2018-09-24T13:02:09Z</time>
      </trkpt>
      <trkpt lat="47.65284" lon="6.18005">
        <ele>229</ele>
        <time>2018-09-24T13:02:09Z</time>
      </trkpt>
      <trkpt lat="47.65268" lon="6.17984">
        <ele>227</ele>
        <time>2018-09-24T13:02:55Z</time>
      </trkpt>
      <trkpt lat="47.65259" lon="6.17977">
        <ele>227</ele>
        <time>2018-09-24T13:03:26Z</time>
      </trkpt>
      <trkpt lat="47.65249" lon="6.17975">
        <ele>227</ele>
        <time>2018-09-24T13:03:29Z</time>
      </trkpt>
      <trkpt lat="47.65236" lon="6.17976">
        <ele>227</ele>
        <time>2018-09-24T13:03:45Z</time>
      </trkpt>
      <trkpt lat="47.6522" lon="6.17983">
        <ele>227</ele>
        <time>2018-09-24T13:04:09Z</time>
      </trkpt>
      <trkpt lat="47.65194" lon="6.18008">
        <ele>229</ele>
        <time>2018-09-24T13:04:33Z</time>
      </trkpt>
      <trkpt lat="47.65156" lon="6.18068">
        <ele>232</ele>
        <time>2018-09-24T13:04:54Z</time>
      </trkpt>
      <trkpt lat="47.65141" lon="6.18085">
        <ele>237</ele>
        <time>2018-09-24T13:05:15Z</time>
      </trkpt>
      <trkpt lat="47.65123" lon="6.18099">
        <ele>238</ele>
        <time>2018-09-24T13:05:28Z</time>
      </trkpt>
      <trkpt lat="47.65108" lon="6.18105">
        <ele>238</ele>
        <time>2018-09-24T13:05:38Z</time>
      </trkpt>
      <trkpt lat="47.65092" lon="6.18106">
        <ele>237</ele>
        <time>2018-09-24T13:06:01Z</time>
      </trkpt>
      <trkpt lat="47.65067" lon="6.18096">
        <ele>235</ele>
        <time>2018-09-24T13:06:10Z</time>
      </trkpt>
      <trkpt lat="47.65052" lon="6.18093">
        <ele>235</ele>
        <time>2018-09-24T13:06:10Z</time>
      </trkpt>
      <trkpt lat="47.65034" lon="6.18092">
        <ele>235</ele>
        <time>2018-09-24T13:06:11Z</time>
      </trkpt>
      <trkpt lat="47.64987" lon="6.18095">
        <ele>232</ele>
        <time>2018-09-24T13:06:19Z</time>
      </trkpt>
      <trkpt lat="47.64954" lon="6.18098">
        <ele>232</ele>
        <time>2018-09-24T13:06:27Z</time>
      </trkpt>
      <trkpt lat="47.64896" lon="6.18087">
        <ele>229</ele>
        <time>2018-09-24T13:06:36Z</time>
      </trkpt>
      <trkpt lat="47.64851" lon="6.18075">
        <ele>225</ele>
        <time>2018-09-24T13:06:45Z</time>
      </trkpt>
      <trkpt lat="47.64815" lon="6.18068">
        <ele>226</ele>
        <time>2018-09-24T13:06:48Z</time>
      </trkpt>
      <trkpt lat="47.64784" lon="6.18057">
        <ele>227</ele>
        <time>2018-09-24T13:06:51Z</time>
      </trkpt>
      <trkpt lat="47.64772" lon="6.18048">
        <ele>227</ele>
        <time>2018-09-24T13:06:54Z</time>
      </trkpt>
      <trkpt lat="47.64761" lon="6.18035">
        <ele>226</ele>
        <time>2018-09-24T13:07:09Z</time>
      </trkpt>
      <trkpt lat="47.64724" lon="6.17976">
        <ele>224</ele>
        <time>2018-09-24T13:07:10Z</time>
      </trkpt>
      <trkpt lat="47.64696" lon="6.17934">
        <ele>224</ele>
        <time>2018-09-24T13:07:13Z</time>
      </trkpt>
      <trkpt lat="47.64679" lon="6.17915">
        <ele>221</ele>
        <time>2018-09-24T13:07:17Z</time>
      </trkpt>
      <trkpt lat="47.64661" lon="6.17902">
        <ele>222</ele>
        <time>2018-09-24T13:07:21Z</time>
      </trkpt>
      <trkpt lat="47.64637" lon="6.17891">
        <ele>223</ele>
        <time>2018-09-24T13:07:26Z</time>
      </trkpt>
      <trkpt lat="47.64622" lon="6.17885">
        <ele>223</ele>
        <time>2018-09-24T13:07:37Z</time>
      </trkpt>
      <trkpt lat="47.64608" lon="6.17889">
        <ele>223</ele>
        <time>2018-09-24T13:07:47Z</time>
      </trkpt>
      <trkpt lat="47.64597" lon="6.17896">
        <ele>223</ele>
        <time>2018-09-24T13:07:55Z</time>
      </trkpt>
      <trkpt lat="47.64584" lon="6.1791">
        <ele>224</ele>
        <time>2018-09-24T13:08:03Z</time>
      </trkpt>
      <trkpt lat="47.64566" lon="6.17931">
        <ele>225</ele>
        <time>2018-09-24T13:08:11Z</time>
      </trkpt>
      <trkpt lat="47.64558" lon="6.17959">
        <ele>226</ele>
        <time>2018-09-24T13:08:22Z</time>
      </trkpt>
      <trkpt lat="47.64548" lon="6.17997">
        <ele>227</ele>
        <time>2018-09-24T13:08:33Z</time>
      </trkpt>
      <trkpt lat="47.64537" lon="6.18019">
        <ele>229</ele>
        <time>2018-09-24T13:08:41Z</time>
      </trkpt>
      <trkpt lat="47.64535" lon="6.18028">
        <ele>229</ele>
        <time>2018-09-24T13:08:46Z</time>
      </trkpt>
      <trkpt lat="47.6451" lon="6.18048">
        <ele>228</ele>
        <time>2018-09-24T13:08:57Z</time>
      </trkpt>
      <trkpt lat="47.64508" lon="6.18064">
        <ele>227</ele>
        <time>2018-09-24T13:09:05Z</time>
      </trkpt>
      <trkpt lat="47.64496" lon="6.18116">
        <ele>224</ele>
        <time>2018-09-24T13:09:05Z</time>
      </trkpt>
      <trkpt lat="47.64493" lon="6.18146">
        <ele>224</ele>
        <time>2018-09-24T13:09:39Z</time>
      </trkpt>
      <trkpt lat="47.64496" lon="6.18168">
        <ele>225</ele>
        <time>2018-09-24T13:09:47Z</time>
      </trkpt>
      <trkpt lat="47.64505" lon="6.18173">
        <ele>228</ele>
        <time>2018-09-24T13:09:54Z</time>
      </trkpt>
      <trkpt lat="47.645" lon="6.18192">
        <ele>232</ele>
        <time>2018-09-24T13:10:06Z</time>
      </trkpt>
      <trkpt lat="47.64483" lon="6.18238">
        <ele>228</ele>
        <time>2018-09-24T13:10:11Z</time>
      </trkpt>
      <trkpt lat="47.64461" lon="6.18274">
        <ele>230</ele>
        <time>2018-09-24T13:10:12Z</time>
      </trkpt>
      <trkpt lat="47.64436" lon="6.18304">
        <ele>230</ele>
        <time>2018-09-24T13:10:18Z</time>
      </trkpt>
      <trkpt lat="47.64403" lon="6.18341">
        <ele>228</ele>
        <time>2018-09-24T13:10:28Z</time>
      </trkpt>
    </trkseg>
  </trk>
</gpx>